createdAt,value
2018-10-16T00:00:57.947Z,19.00
2018-10-16T00:01:57.934Z,19.40
2018-10-16T00:02:57.980Z,19.40
2018-10-16T00:03:57.906Z,18.30
2018-10-16T00:04:57.904Z,22.20
2018-10-16T00:05:57.885Z,19.20
2018-10-16T00:06:57.871Z,20.50
2018-10-16T00:07:57.856Z,19.50
2018-10-16T00:08:57.848Z,20.30
2018-10-16T00:09:57.829Z,20.40
2018-10-16T00:10:57.816Z,20.10
2018-10-16T00:11:57.802Z,20.00
2018-10-16T00:12:57.799Z,20.30
2018-10-16T00:13:57.783Z,20.20
2018-10-16T00:14:57.764Z,20.90
2018-10-16T00:15:57.752Z,21.10
2018-10-16T00:16:57.755Z,21.80
2018-10-16T00:17:57.722Z,20.10
2018-10-16T00:18:57.709Z,20.20
2018-10-16T00:19:57.697Z,19.10
2018-10-16T00:20:57.692Z,20.20
2018-10-16T00:21:57.675Z,19.00
2018-10-16T00:22:57.657Z,20.20
2018-10-16T00:23:57.645Z,19.80
2018-10-16T00:24:57.636Z,20.60
2018-10-16T00:25:57.620Z,21.60
2018-10-16T00:26:57.607Z,21.20
2018-10-16T00:27:57.604Z,21.00
2018-10-16T00:28:57.579Z,20.30
2018-10-16T00:29:57.565Z,20.60
2018-10-16T00:30:57.556Z,20.60
2018-10-16T00:31:57.542Z,20.50
2018-10-16T00:32:57.526Z,21.10
2018-10-16T00:33:57.513Z,20.60
2018-10-16T00:34:57.511Z,20.80
2018-10-16T00:35:57.486Z,22.30
2018-10-16T00:36:57.483Z,21.80
2018-10-16T00:37:57.460Z,22.20
2018-10-16T00:38:57.446Z,21.40
2018-10-16T00:39:57.433Z,20.40
2018-10-16T00:40:57.420Z,21.60
2018-10-16T00:41:57.410Z,21.20
2018-10-16T00:42:57.401Z,21.80
2018-10-16T00:43:57.384Z,21.90
2018-10-16T00:44:57.368Z,21.70
2018-10-16T00:45:57.354Z,22.00
2018-10-16T00:46:57.341Z,21.40
2018-10-16T00:47:57.327Z,22.50
2018-10-16T00:48:57.318Z,22.60
2018-10-16T00:49:57.304Z,22.90
2018-10-16T00:50:57.289Z,21.10
2018-10-16T00:51:57.276Z,21.90
2018-10-16T00:52:57.273Z,21.80
2018-10-16T00:53:57.247Z,20.90
2018-10-16T00:54:57.290Z,21.00
2018-10-16T00:55:57.221Z,21.70
2018-10-16T00:56:57.215Z,22.70
2018-10-16T00:57:57.198Z,22.10
2018-10-16T00:58:57.182Z,23.60
2018-10-16T00:59:57.173Z,22.50
2018-10-16T01:00:57.164Z,22.20
2018-10-16T01:01:57.155Z,20.80
2018-10-16T01:02:57.135Z,21.90
2018-10-16T01:03:57.129Z,21.40
2018-10-16T01:04:57.107Z,21.50
2018-10-16T01:05:57.089Z,21.10
2018-10-16T01:06:57.078Z,21.60
2018-10-16T01:07:57.070Z,19.80
2018-10-16T01:08:57.054Z,21.50
2018-10-16T01:09:57.038Z,20.20
2018-10-16T01:10:57.025Z,22.20
2018-10-16T01:11:57.015Z,22.10
2018-10-16T01:12:56.998Z,22.10
2018-10-16T01:13:56.983Z,22.00
2018-10-16T01:14:56.973Z,21.20
2018-10-16T01:15:56.960Z,21.20
2018-10-16T01:16:56.945Z,21.20
2018-10-16T01:17:56.943Z,20.80
2018-10-16T01:18:56.921Z,21.40
2018-10-16T01:19:56.909Z,20.70
2018-10-16T01:20:56.893Z,20.50
2018-10-16T01:21:56.880Z,21.30
2018-10-16T01:22:56.875Z,21.90
2018-10-16T01:23:56.862Z,21.80
2018-10-16T01:24:56.840Z,21.50
2018-10-16T01:25:56.829Z,22.90
2018-10-16T01:26:56.817Z,20.70
2018-10-16T01:27:56.803Z,20.40
2018-10-16T01:28:56.788Z,22.10
2018-10-16T01:29:56.774Z,21.10
2018-10-16T01:30:56.763Z,21.70
2018-10-16T01:31:56.745Z,22.10
2018-10-16T01:32:56.736Z,22.20
2018-10-16T01:33:56.718Z,22.00
2018-10-16T01:34:56.708Z,22.00
2018-10-16T01:35:56.693Z,21.40
2018-10-16T01:36:56.684Z,23.30
2018-10-16T01:37:56.664Z,22.20
2018-10-16T01:38:56.651Z,21.40
2018-10-16T01:39:56.639Z,20.50
2018-10-16T01:40:56.633Z,21.70
2018-10-16T01:41:56.617Z,22.40
2018-10-16T01:42:56.601Z,21.10
2018-10-16T01:43:56.591Z,22.80
2018-10-16T01:44:56.582Z,21.80
2018-10-16T01:45:56.560Z,22.80
2018-10-16T01:46:56.547Z,21.10
2018-10-16T01:47:56.536Z,23.00
2018-10-16T01:48:56.526Z,21.70
2018-10-16T01:49:56.508Z,23.00
2018-10-16T01:50:56.496Z,23.10
2018-10-16T01:51:56.488Z,22.60
2018-10-16T01:52:56.468Z,22.30
2018-10-16T01:53:56.456Z,22.30
2018-10-16T01:54:56.443Z,24.80
2018-10-16T01:55:56.438Z,21.20
2018-10-16T01:56:56.417Z,20.60
2018-10-16T01:57:56.403Z,20.90
2018-10-16T01:58:56.390Z,21.00
2018-10-16T01:59:56.378Z,22.30
2018-10-16T02:00:56.367Z,21.20
2018-10-16T02:01:56.351Z,21.20
2018-10-16T02:02:56.335Z,20.50
2018-10-16T02:03:56.323Z,21.00
2018-10-16T02:04:56.309Z,19.70
2018-10-16T02:05:56.298Z,19.70
2018-10-16T02:06:56.285Z,21.50
2018-10-16T02:07:56.276Z,20.90
2018-10-16T02:08:56.261Z,20.10
2018-10-16T02:09:56.248Z,20.00
2018-10-16T02:10:56.231Z,20.30
2018-10-16T02:11:56.219Z,20.20
2018-10-16T02:12:56.208Z,20.10
2018-10-16T02:13:56.197Z,19.90
2018-10-16T02:14:56.256Z,19.90
2018-10-16T02:15:56.168Z,19.30
2018-10-16T02:16:56.159Z,20.10
2018-10-16T02:17:56.140Z,18.90
2018-10-16T02:18:56.130Z,19.60
2018-10-16T02:19:56.113Z,20.70
2018-10-16T02:20:56.099Z,19.80
2018-10-16T02:21:56.089Z,20.90
2018-10-16T02:22:56.082Z,20.40
2018-10-16T02:23:56.063Z,20.10
2018-10-16T02:24:56.051Z,20.80
2018-10-16T02:25:56.044Z,20.70
2018-10-16T02:26:56.021Z,21.80
2018-10-16T02:27:56.010Z,21.80
2018-10-16T02:28:55.998Z,20.80
2018-10-16T02:29:55.983Z,20.70
2018-10-16T02:30:55.976Z,20.50
2018-10-16T02:31:55.963Z,21.10
2018-10-16T02:32:55.944Z,21.40
2018-10-16T02:33:55.936Z,21.10
2018-10-16T02:34:55.918Z,21.20
2018-10-16T02:35:55.910Z,20.10
2018-10-16T02:36:55.891Z,21.00
2018-10-16T02:37:55.876Z,21.60
2018-10-16T02:38:55.867Z,20.90
2018-10-16T02:39:55.856Z,20.40
2018-10-16T02:40:55.839Z,19.80
2018-10-16T02:41:55.826Z,19.60
2018-10-16T02:42:55.812Z,20.00
2018-10-16T02:43:55.800Z,19.30
2018-10-16T02:44:55.787Z,21.00
2018-10-16T02:45:55.772Z,20.90
2018-10-16T02:46:55.759Z,20.60
2018-10-16T02:47:55.746Z,21.10
2018-10-16T02:48:55.736Z,20.40
2018-10-16T02:49:55.720Z,20.90
2018-10-16T02:50:55.708Z,20.90
2018-10-16T02:51:55.692Z,21.30
2018-10-16T02:52:55.697Z,19.50
2018-10-16T02:53:55.668Z,21.50
2018-10-16T02:54:55.654Z,20.40
2018-10-16T02:55:55.642Z,21.40
2018-10-16T02:56:55.630Z,21.30
2018-10-16T02:57:55.612Z,20.80
2018-10-16T02:58:55.598Z,21.40
2018-10-16T02:59:55.586Z,22.30
2018-10-16T03:00:55.577Z,22.20
2018-10-16T03:01:55.560Z,21.40
2018-10-16T03:02:55.547Z,20.90
2018-10-16T03:03:55.534Z,20.10
2018-10-16T03:04:55.522Z,22.10
2018-10-16T03:05:55.506Z,20.90
2018-10-16T03:06:55.499Z,20.60
2018-10-16T03:07:55.479Z,21.60
2018-10-16T03:08:55.475Z,21.60
2018-10-16T03:09:55.452Z,20.30
2018-10-16T03:10:55.440Z,20.70
2018-10-16T03:11:55.425Z,20.70
2018-10-16T03:12:55.414Z,21.40
2018-10-16T03:13:55.399Z,22.10
2018-10-16T03:14:55.384Z,21.30
2018-10-16T03:15:55.377Z,21.00
2018-10-16T03:16:55.362Z,22.20
2018-10-16T03:17:55.347Z,22.00
2018-10-16T03:18:55.333Z,21.40
2018-10-16T03:19:55.320Z,21.50
2018-10-16T03:20:55.306Z,21.80
2018-10-16T03:21:55.300Z,20.80
2018-10-16T03:22:55.276Z,21.20
2018-10-16T03:23:55.265Z,20.60
2018-10-16T03:24:55.252Z,20.90
2018-10-16T03:25:55.239Z,22.00
2018-10-16T03:26:55.229Z,21.40
2018-10-16T03:27:55.210Z,21.30
2018-10-16T03:28:55.197Z,20.50
2018-10-16T03:29:55.191Z,20.80
2018-10-16T03:30:55.173Z,22.90
2018-10-16T03:31:55.160Z,20.80
2018-10-16T03:32:55.145Z,21.60
2018-10-16T03:33:55.130Z,21.20
2018-10-16T03:34:55.115Z,21.20
2018-10-16T03:35:55.103Z,22.00
2018-10-16T03:36:55.087Z,21.40
2018-10-16T03:37:55.074Z,21.40
2018-10-16T03:38:55.061Z,21.70
2018-10-16T03:39:55.051Z,21.10
2018-10-16T03:40:55.036Z,21.20
2018-10-16T03:41:55.020Z,22.10
2018-10-16T03:42:55.008Z,22.00
2018-10-16T03:43:54.994Z,20.30
2018-10-16T03:44:54.978Z,20.40
2018-10-16T03:45:54.965Z,21.10
2018-10-16T03:46:54.955Z,21.90
2018-10-16T03:47:54.940Z,22.00
2018-10-16T03:48:54.924Z,21.20
2018-10-16T03:49:54.909Z,20.60
2018-10-16T03:50:54.898Z,21.60
2018-10-16T03:51:54.885Z,21.50
2018-10-16T03:52:54.870Z,19.30
2018-10-16T03:53:54.855Z,19.60
2018-10-16T03:54:54.844Z,20.70
2018-10-16T03:55:54.830Z,19.90
2018-10-16T03:56:54.815Z,20.70
2018-10-16T03:57:54.801Z,19.60
2018-10-16T03:58:54.787Z,20.80
2018-10-16T03:59:54.772Z,20.50
2018-10-16T04:00:54.759Z,20.50
2018-10-16T04:01:54.746Z,20.50
2018-10-16T04:02:54.735Z,21.30
2018-10-16T04:03:54.720Z,20.30
2018-10-16T04:04:54.708Z,21.00
2018-10-16T04:05:54.692Z,22.00
2018-10-16T04:06:54.680Z,22.30
2018-10-16T04:07:54.664Z,19.90
2018-10-16T04:08:54.654Z,22.60
2018-10-16T04:09:54.639Z,21.40
2018-10-16T04:10:54.627Z,20.50
2018-10-16T04:11:54.612Z,21.20
2018-10-16T04:12:54.597Z,21.10
2018-10-16T04:13:54.587Z,21.20
2018-10-16T04:14:54.569Z,20.70
2018-10-16T04:15:54.556Z,21.60
2018-10-16T04:16:54.545Z,21.90
2018-10-16T04:17:54.533Z,23.40
2018-10-16T04:18:54.526Z,22.60
2018-10-16T04:19:54.503Z,23.00
2018-10-16T04:20:54.490Z,21.80
2018-10-16T04:21:54.472Z,22.40
2018-10-16T04:22:54.521Z,22.40
2018-10-16T04:23:54.446Z,22.40
2018-10-16T04:24:54.436Z,21.20
2018-10-16T04:25:54.419Z,21.00
2018-10-16T04:26:54.405Z,20.80
2018-10-16T04:27:54.390Z,21.30
2018-10-16T04:28:54.378Z,20.90
2018-10-16T04:29:54.363Z,22.20
2018-10-16T04:30:54.348Z,22.20
2018-10-16T04:31:54.335Z,22.00
2018-10-16T04:32:54.324Z,22.70
2018-10-16T04:33:54.307Z,22.30
2018-10-16T04:34:54.293Z,21.80
2018-10-16T04:35:54.280Z,22.40
2018-10-16T04:36:54.267Z,22.10
2018-10-16T04:37:54.251Z,22.10
2018-10-16T04:38:54.238Z,22.00
2018-10-16T04:39:54.225Z,21.80
2018-10-16T04:40:54.208Z,23.00
2018-10-16T04:41:54.197Z,22.40
2018-10-16T04:42:54.183Z,22.10
2018-10-16T04:43:54.260Z,22.10
2018-10-16T04:44:54.189Z,22.30
2018-10-16T04:45:54.141Z,22.30
2018-10-16T04:46:54.127Z,22.00
2018-10-16T04:47:54.114Z,22.10
2018-10-16T04:48:54.099Z,22.80
2018-10-16T04:49:54.085Z,22.90
2018-10-16T04:50:54.072Z,21.80
2018-10-16T04:51:54.058Z,23.40
2018-10-16T04:52:54.046Z,23.30
2018-10-16T04:53:54.029Z,23.10
2018-10-16T04:54:54.065Z,24.00
2018-10-16T04:55:54.008Z,23.60
2018-10-16T04:56:53.989Z,22.90
2018-10-16T04:57:53.974Z,23.20
2018-10-16T04:58:53.960Z,22.30
2018-10-16T04:59:53.947Z,23.70
2018-10-16T05:00:53.931Z,23.60
2018-10-16T05:01:53.918Z,23.00
2018-10-16T05:02:53.920Z,24.00
2018-10-16T05:03:53.909Z,23.70
2018-10-16T05:04:53.877Z,23.90
2018-10-16T05:05:53.865Z,24.40
2018-10-16T05:06:53.852Z,23.30
2018-10-16T05:07:53.841Z,21.70
2018-10-16T05:08:53.822Z,23.30
2018-10-16T05:09:53.815Z,22.90
2018-10-16T05:10:53.794Z,23.00
2018-10-16T05:11:53.777Z,22.80
2018-10-16T05:12:53.807Z,23.20
2018-10-16T05:13:53.752Z,22.90
2018-10-16T05:14:53.736Z,22.80
2018-10-16T05:15:53.725Z,26.60
2018-10-16T05:16:53.801Z,23.70
2018-10-16T05:17:53.702Z,23.20
2018-10-16T05:18:53.688Z,23.50
2018-10-16T05:19:53.714Z,23.40
2018-10-16T05:20:53.659Z,22.60
2018-10-16T05:21:53.658Z,22.50
2018-10-16T05:22:53.625Z,23.00
2018-10-16T05:23:53.611Z,23.70
2018-10-16T05:24:53.597Z,24.20
2018-10-16T05:25:53.581Z,22.60
2018-10-16T05:26:53.569Z,22.90
2018-10-16T05:27:53.560Z,23.50
2018-10-16T05:28:53.541Z,22.20
2018-10-16T05:29:53.527Z,22.60
2018-10-16T05:30:53.578Z,24.30
2018-10-16T05:31:53.498Z,23.60
2018-10-16T05:32:53.484Z,23.10
2018-10-16T05:33:53.468Z,23.10
2018-10-16T05:34:53.460Z,23.40
2018-10-16T05:35:53.443Z,23.80
2018-10-16T05:36:53.431Z,22.50
2018-10-16T05:37:53.413Z,23.80
2018-10-16T05:38:53.400Z,23.10
2018-10-16T05:39:53.384Z,22.80
2018-10-16T05:40:53.371Z,23.40
2018-10-16T05:41:53.357Z,22.20
2018-10-16T05:42:53.345Z,21.80
2018-10-16T05:43:53.327Z,22.70
2018-10-16T05:44:53.314Z,21.50
2018-10-16T05:45:53.301Z,22.60
2018-10-16T05:46:53.297Z,22.60
2018-10-16T05:47:53.281Z,23.20
2018-10-16T05:48:53.262Z,23.00
2018-10-16T05:49:53.240Z,22.60
2018-10-16T05:50:53.233Z,22.40
2018-10-16T05:51:53.216Z,22.20
2018-10-16T05:52:53.204Z,23.00
2018-10-16T05:53:53.198Z,22.80
2018-10-16T05:54:53.174Z,23.90
2018-10-16T05:55:53.161Z,22.50
2018-10-16T05:56:53.144Z,23.60
2018-10-16T05:57:53.132Z,23.00
2018-10-16T05:58:53.115Z,22.30
2018-10-16T05:59:53.100Z,23.70
2018-10-16T06:00:53.088Z,23.30
2018-10-16T06:01:53.074Z,25.30
2018-10-16T06:02:53.064Z,26.50
2018-10-16T06:03:53.047Z,26.70
2018-10-16T06:04:53.046Z,25.10
2018-10-16T06:05:53.015Z,24.20
2018-10-16T06:06:53.003Z,28.80
2018-10-16T06:07:52.992Z,29.50
2018-10-16T06:08:52.976Z,26.10
2018-10-16T06:09:52.960Z,27.90
2018-10-16T06:10:53.013Z,34.70
2018-10-16T06:11:52.934Z,28.60
2018-10-16T06:12:52.917Z,32.50
2018-10-16T06:13:52.903Z,27.30
2018-10-16T06:14:52.889Z,31.30
2018-10-16T06:15:52.879Z,28.00
2018-10-16T06:16:52.861Z,27.80
2018-10-16T06:17:52.846Z,25.50
2018-10-16T06:18:52.832Z,27.30
2018-10-16T06:19:52.820Z,25.00
2018-10-16T06:20:52.804Z,29.10
2018-10-16T06:21:52.789Z,23.70
2018-10-16T06:22:52.775Z,22.90
2018-10-16T06:23:52.775Z,25.90
2018-10-16T06:24:52.748Z,26.20
2018-10-16T06:25:52.736Z,25.70
2018-10-16T06:26:52.726Z,23.60
2018-10-16T06:27:52.764Z,26.60
2018-10-16T06:28:52.690Z,26.70
2018-10-16T06:29:52.677Z,26.40
2018-10-16T06:30:52.662Z,30.60
2018-10-16T06:31:52.650Z,29.20
2018-10-16T06:32:52.637Z,24.90
2018-10-16T06:33:52.627Z,25.00
2018-10-16T06:34:52.615Z,24.30
2018-10-16T06:35:52.592Z,23.30
2018-10-16T06:36:52.580Z,24.90
2018-10-16T06:37:52.563Z,24.50
2018-10-16T06:38:52.553Z,23.50
2018-10-16T06:39:52.535Z,24.50
2018-10-16T06:40:52.743Z,25.90
2018-10-16T06:41:52.508Z,24.00
2018-10-16T06:42:52.494Z,24.40
2018-10-16T06:43:52.541Z,27.10
2018-10-16T06:44:52.465Z,26.90
2018-10-16T06:45:52.454Z,24.70
2018-10-16T06:46:52.439Z,28.90
2018-10-16T06:47:52.588Z,24.20
2018-10-16T06:48:52.569Z,24.50
2018-10-16T06:49:52.395Z,24.90
2018-10-16T06:50:52.385Z,25.20
2018-10-16T06:51:52.372Z,26.90
2018-10-16T06:52:52.356Z,26.90
2018-10-16T06:53:52.340Z,26.10
2018-10-16T06:54:52.335Z,25.70
2018-10-16T06:55:52.319Z,28.60
2018-10-16T06:56:52.301Z,25.70
2018-10-16T06:57:52.291Z,26.60
2018-10-16T06:58:52.271Z,30.20
2018-10-16T06:59:52.260Z,27.60
2018-10-16T07:00:52.289Z,25.40
2018-10-16T07:01:52.235Z,27.20
2018-10-16T07:02:52.214Z,26.40
2018-10-16T07:03:52.200Z,28.80
2018-10-16T07:04:52.192Z,26.90
2018-10-16T07:05:52.175Z,28.10
2018-10-16T07:06:52.185Z,27.70
2018-10-16T07:07:52.149Z,27.80
2018-10-16T07:08:52.141Z,26.00
2018-10-16T07:09:52.121Z,27.20
2018-10-16T07:10:52.103Z,29.10
2018-10-16T07:11:52.095Z,27.10
2018-10-16T07:12:52.080Z,29.30
2018-10-16T07:13:52.066Z,29.10
2018-10-16T07:14:52.095Z,26.80
2018-10-16T07:15:52.048Z,26.80
2018-10-16T07:16:52.021Z,26.30
2018-10-16T07:17:52.007Z,26.30
2018-10-16T07:18:51.994Z,33.20
2018-10-16T07:19:51.983Z,29.30
2018-10-16T07:20:51.968Z,34.00
2018-10-16T07:21:51.955Z,35.20
2018-10-16T07:22:51.942Z,30.70
2018-10-16T07:23:51.991Z,31.00
2018-10-16T07:24:51.912Z,34.10
2018-10-16T07:25:51.896Z,37.10
2018-10-16T07:26:51.889Z,34.30
2018-10-16T07:27:51.879Z,33.50
2018-10-16T07:28:51.857Z,30.30
2018-10-16T07:29:51.851Z,28.80
2018-10-16T07:30:51.831Z,32.80
2018-10-16T07:31:51.816Z,29.50
2018-10-16T07:32:51.803Z,32.70
2018-10-16T07:33:51.791Z,28.90
2018-10-16T07:34:51.783Z,30.80
2018-10-16T07:35:51.770Z,30.90
2018-10-16T07:36:51.760Z,29.00
2018-10-16T07:37:51.830Z,26.20
2018-10-16T07:38:51.790Z,27.80
2018-10-16T07:39:51.734Z,29.40
2018-10-16T07:40:51.696Z,27.50
2018-10-16T07:41:51.684Z,26.70
2018-10-16T07:42:51.676Z,27.30
2018-10-16T07:43:51.661Z,26.10
2018-10-16T07:44:51.647Z,26.30
2018-10-16T07:45:51.699Z,26.20
2018-10-16T07:46:51.623Z,30.20
2018-10-16T07:47:51.629Z,27.20
2018-10-16T07:48:51.598Z,27.20
2018-10-16T07:49:51.587Z,59.10
2018-10-16T07:50:51.580Z,37.60
2018-10-16T07:51:51.588Z,32.40
2018-10-16T07:52:51.555Z,27.30
2018-10-16T07:53:51.569Z,29.40
2018-10-16T07:54:51.540Z,30.10
2018-10-16T07:55:51.616Z,26.70
2018-10-16T07:56:51.523Z,26.10
2018-10-16T07:57:51.534Z,26.40
2018-10-16T07:58:51.497Z,25.70
2018-10-16T07:59:51.494Z,24.30
2018-10-16T08:00:51.486Z,24.60
2018-10-16T08:01:51.480Z,25.40
2018-10-16T08:02:51.481Z,25.30
2018-10-16T08:03:51.469Z,24.20
2018-10-16T08:04:51.463Z,24.00
2018-10-16T08:05:51.467Z,24.20
2018-10-16T08:06:51.449Z,24.80
2018-10-16T08:07:51.447Z,23.00
2018-10-16T08:08:51.441Z,24.20
2018-10-16T08:09:51.436Z,23.40
2018-10-16T08:10:51.432Z,23.70
2018-10-16T08:11:51.433Z,24.10
2018-10-16T08:12:51.426Z,23.60
2018-10-16T08:13:51.421Z,23.80
2018-10-16T08:14:51.427Z,22.90
2018-10-16T08:15:51.416Z,23.10
2018-10-16T08:16:51.416Z,23.70
2018-10-16T08:17:51.412Z,23.60
2018-10-16T08:18:51.413Z,23.00
2018-10-16T08:19:51.410Z,24.80
2018-10-16T08:20:51.412Z,23.00
2018-10-16T08:21:51.411Z,22.00
2018-10-16T08:22:51.404Z,22.30
2018-10-16T08:23:51.407Z,22.30
2018-10-16T08:24:51.403Z,24.20
2018-10-16T08:25:51.402Z,22.90
2018-10-16T08:26:51.407Z,22.50
2018-10-16T08:27:51.402Z,22.30
2018-10-16T08:28:51.397Z,23.10
2018-10-16T08:29:51.464Z,23.90
2018-10-16T08:30:51.405Z,22.70
2018-10-16T08:31:51.401Z,22.50
2018-10-16T08:32:51.398Z,22.50
2018-10-16T08:33:51.396Z,23.80
2018-10-16T08:34:51.399Z,21.40
2018-10-16T08:35:51.459Z,23.60
2018-10-16T08:36:51.431Z,22.60
2018-10-16T08:37:51.393Z,23.80
2018-10-16T08:38:51.395Z,24.50
2018-10-16T08:39:51.398Z,29.20
2018-10-16T08:40:51.415Z,24.50
2018-10-16T08:41:51.493Z,26.00
2018-10-16T08:42:51.399Z,24.60
2018-10-16T08:43:51.398Z,23.30
2018-10-16T08:44:51.403Z,24.30
2018-10-16T08:45:51.402Z,23.30
2018-10-16T08:46:51.401Z,23.30
2018-10-16T08:47:51.405Z,25.00
2018-10-16T08:48:51.407Z,23.90
2018-10-16T08:49:51.401Z,23.90
2018-10-16T08:50:51.404Z,25.40
2018-10-16T08:51:51.406Z,25.00
2018-10-16T08:52:51.406Z,28.60
2018-10-16T08:53:51.412Z,24.20
2018-10-16T08:54:51.410Z,28.40
2018-10-16T08:55:51.410Z,31.10
2018-10-16T08:56:51.422Z,26.70
2018-10-16T08:57:51.413Z,26.70
2018-10-16T08:58:51.414Z,26.50
2018-10-16T08:59:51.414Z,28.50
2018-10-16T09:00:51.417Z,26.90
2018-10-16T09:01:51.417Z,27.40
2018-10-16T09:02:51.420Z,27.70
2018-10-16T09:03:51.421Z,27.60
2018-10-16T09:04:51.429Z,31.50
2018-10-16T09:05:51.424Z,26.80
2018-10-16T09:06:51.554Z,28.10
2018-10-16T09:07:51.432Z,25.90
2018-10-16T09:08:51.432Z,33.30
2018-10-16T09:09:51.432Z,28.50
2018-10-16T09:10:51.444Z,25.50
2018-10-16T09:11:51.436Z,25.90
2018-10-16T09:12:51.448Z,25.40
2018-10-16T09:13:51.759Z,24.90
2018-10-16T09:14:51.439Z,24.00
2018-10-16T09:15:51.444Z,23.10
2018-10-16T09:16:51.443Z,22.50
2018-10-16T09:17:51.446Z,23.10
2018-10-16T09:18:51.450Z,23.00
2018-10-16T09:19:51.448Z,22.80
2018-10-16T09:20:51.448Z,22.50
2018-10-16T09:21:51.450Z,23.30
2018-10-16T09:22:51.450Z,22.80
2018-10-16T09:23:51.456Z,23.40
2018-10-16T09:24:51.481Z,23.20
2018-10-16T09:25:51.456Z,21.80
2018-10-16T09:26:51.459Z,23.70
2018-10-16T09:27:51.459Z,23.00
2018-10-16T09:28:51.462Z,22.80
2018-10-16T09:29:51.461Z,24.50
2018-10-16T09:30:51.606Z,23.20
2018-10-16T09:31:51.463Z,24.00
2018-10-16T09:32:51.478Z,23.20
2018-10-16T09:33:51.470Z,23.30
2018-10-16T09:34:51.467Z,22.90
2018-10-16T09:35:51.475Z,23.50
2018-10-16T09:36:51.474Z,23.70
2018-10-16T09:37:51.654Z,23.10
2018-10-16T09:38:51.473Z,22.70
2018-10-16T09:39:51.477Z,23.10
2018-10-16T09:40:51.475Z,23.80
2018-10-16T09:41:51.475Z,23.30
2018-10-16T09:42:51.483Z,22.80
2018-10-16T09:43:51.482Z,23.20
2018-10-16T09:44:51.478Z,23.20
2018-10-16T09:45:51.486Z,23.80
2018-10-16T09:46:51.480Z,23.50
2018-10-16T09:47:51.485Z,22.30
2018-10-16T09:48:51.482Z,22.30
2018-10-16T09:49:51.484Z,22.70
2018-10-16T09:50:51.482Z,23.20
2018-10-16T09:51:51.484Z,23.60
2018-10-16T09:52:51.484Z,23.70
2018-10-16T09:53:51.484Z,22.40
2018-10-16T09:54:51.487Z,23.50
2018-10-16T09:55:51.487Z,21.50
2018-10-16T09:56:51.508Z,24.60
2018-10-16T09:57:51.486Z,23.20
2018-10-16T09:58:51.485Z,23.40
2018-10-16T09:59:51.487Z,21.30
2018-10-16T10:00:51.599Z,22.00
2018-10-16T10:01:51.492Z,24.20
2018-10-16T10:02:51.507Z,22.60
2018-10-16T10:03:51.486Z,23.50
2018-10-16T10:04:51.486Z,23.00
2018-10-16T10:05:51.489Z,22.50
2018-10-16T10:06:51.486Z,22.50
2018-10-16T10:07:51.489Z,21.60
2018-10-16T10:08:51.486Z,22.70
2018-10-16T10:09:51.485Z,21.70
2018-10-16T10:10:51.511Z,22.00
2018-10-16T10:11:51.487Z,23.70
2018-10-16T10:12:51.484Z,21.50
2018-10-16T10:13:51.487Z,20.80
2018-10-16T10:14:51.483Z,20.60
2018-10-16T10:15:51.485Z,20.80
2018-10-16T10:16:51.480Z,21.50
2018-10-16T10:17:51.480Z,20.10
2018-10-16T10:18:51.489Z,22.70
2018-10-16T10:19:51.478Z,20.30
2018-10-16T10:20:51.476Z,19.70
2018-10-16T10:21:51.480Z,20.30
2018-10-16T10:22:51.475Z,21.10
2018-10-16T10:23:51.474Z,20.40
2018-10-16T10:24:51.473Z,20.20
2018-10-16T10:25:51.510Z,19.80
2018-10-16T10:26:51.474Z,21.30
2018-10-16T10:27:51.471Z,21.00
2018-10-16T10:28:51.469Z,21.60
2018-10-16T10:29:51.610Z,20.40
2018-10-16T10:30:51.467Z,19.50
2018-10-16T10:31:51.471Z,20.30
2018-10-16T10:32:51.463Z,20.50
2018-10-16T10:33:51.462Z,22.50
2018-10-16T10:34:51.462Z,22.80
2018-10-16T10:35:51.458Z,22.10
2018-10-16T10:36:51.456Z,23.40
2018-10-16T10:37:51.455Z,23.00
2018-10-16T10:38:51.453Z,22.10
2018-10-16T10:39:51.458Z,21.50
2018-10-16T10:40:51.449Z,22.60
2018-10-16T10:41:51.445Z,22.00
2018-10-16T10:42:51.446Z,21.70
2018-10-16T10:43:51.444Z,21.00
2018-10-16T10:44:51.442Z,23.40
2018-10-16T10:45:51.438Z,21.80
2018-10-16T10:46:51.440Z,26.60
2018-10-16T10:47:51.440Z,22.00
2018-10-16T10:48:51.433Z,21.30
2018-10-16T10:49:51.492Z,20.30
2018-10-16T10:50:51.695Z,22.50
2018-10-16T10:51:51.427Z,20.50
2018-10-16T10:52:51.427Z,21.70
2018-10-16T10:53:51.426Z,20.30
2018-10-16T10:54:51.427Z,20.00
2018-10-16T10:55:51.415Z,19.40
2018-10-16T10:56:51.551Z,20.40
2018-10-16T10:57:51.419Z,21.10
2018-10-16T10:58:51.409Z,20.20
2018-10-16T10:59:51.416Z,18.80
2018-10-16T11:00:51.406Z,19.50
2018-10-16T11:01:51.409Z,19.80
2018-10-16T11:02:51.396Z,19.10
2018-10-16T11:03:51.396Z,18.20
2018-10-16T11:04:51.394Z,17.90
2018-10-16T11:05:51.396Z,19.90
2018-10-16T11:06:51.385Z,19.10
2018-10-16T11:07:51.388Z,19.00
2018-10-16T11:08:51.383Z,19.20
2018-10-16T11:09:51.377Z,20.10
2018-10-16T11:10:51.698Z,22.90
2018-10-16T11:11:51.375Z,20.70
2018-10-16T11:12:51.372Z,21.30
2018-10-16T11:13:51.368Z,21.10
2018-10-16T11:14:51.383Z,21.70
2018-10-16T11:15:51.362Z,20.50
2018-10-16T11:16:51.359Z,20.70
2018-10-16T11:17:51.361Z,20.40
2018-10-16T11:18:51.349Z,19.90
2018-10-16T11:19:51.355Z,18.40
2018-10-16T11:20:51.383Z,18.60
2018-10-16T11:21:51.348Z,17.70
2018-10-16T11:22:51.337Z,17.50
2018-10-16T11:23:51.333Z,18.20
2018-10-16T11:24:51.336Z,17.40
2018-10-16T11:25:51.337Z,16.70
2018-10-16T11:26:51.330Z,18.60
2018-10-16T11:27:51.322Z,15.70
2018-10-16T11:28:51.318Z,16.30
2018-10-16T11:29:51.317Z,15.90
2018-10-16T11:30:51.313Z,18.00
2018-10-16T11:31:51.306Z,19.20
2018-10-16T11:32:51.361Z,17.00
2018-10-16T11:33:51.298Z,17.80
2018-10-16T11:34:51.294Z,18.20
2018-10-16T11:35:51.293Z,18.10
2018-10-16T11:36:51.322Z,18.40
2018-10-16T11:37:51.288Z,17.50
2018-10-16T11:38:51.339Z,16.90
2018-10-16T11:39:51.277Z,16.70
2018-10-16T11:40:51.272Z,16.60
2018-10-16T11:41:51.271Z,16.00
2018-10-16T11:42:51.263Z,17.20
2018-10-16T11:43:51.269Z,16.90
2018-10-16T11:44:51.309Z,16.80
2018-10-16T11:45:51.362Z,16.90
2018-10-16T11:46:51.248Z,16.50
2018-10-16T11:47:51.245Z,16.00
2018-10-16T11:48:51.244Z,16.00
2018-10-16T11:49:51.268Z,17.20
2018-10-16T11:50:51.233Z,15.90
2018-10-16T11:51:51.234Z,15.70
2018-10-16T11:52:51.223Z,15.80
2018-10-16T11:53:51.221Z,14.20
2018-10-16T11:54:51.222Z,15.80
2018-10-16T11:55:51.220Z,15.10
2018-10-16T11:56:51.207Z,14.70
2018-10-16T11:57:51.204Z,16.30
2018-10-16T11:58:51.199Z,15.50
2018-10-16T11:59:51.193Z,15.00
2018-10-16T12:00:51.190Z,16.00
2018-10-16T12:01:51.189Z,16.70
2018-10-16T12:02:51.190Z,16.70
2018-10-16T12:03:51.179Z,15.80
2018-10-16T12:04:51.175Z,16.30
2018-10-16T12:05:51.178Z,15.70
2018-10-16T12:06:51.170Z,14.50
2018-10-16T12:07:51.165Z,14.20
2018-10-16T12:08:51.168Z,14.90
2018-10-16T12:09:51.165Z,16.50
2018-10-16T12:10:51.253Z,23.50
2018-10-16T12:11:51.153Z,15.10
2018-10-16T12:12:51.151Z,15.40
2018-10-16T12:13:51.149Z,15.50
2018-10-16T12:14:51.150Z,16.10
2018-10-16T12:15:51.132Z,16.30
2018-10-16T12:16:51.320Z,14.00
2018-10-16T12:17:51.125Z,15.70
2018-10-16T12:18:51.155Z,15.90
2018-10-16T12:19:51.124Z,15.70
2018-10-16T12:20:51.154Z,14.80
2018-10-16T12:21:51.115Z,14.10
2018-10-16T12:22:51.108Z,17.20
2018-10-16T12:23:51.122Z,15.00
2018-10-16T12:24:51.106Z,13.60
2018-10-16T12:25:51.094Z,14.20
2018-10-16T12:26:51.106Z,15.00
2018-10-16T12:27:51.090Z,14.30
2018-10-16T12:28:51.105Z,14.00
2018-10-16T12:29:51.089Z,12.80
2018-10-16T12:30:51.119Z,13.00
2018-10-16T12:31:51.283Z,13.10
2018-10-16T12:32:51.085Z,14.00
2018-10-16T12:33:51.058Z,13.30
2018-10-16T12:34:51.054Z,11.90
2018-10-16T12:35:51.051Z,11.90
2018-10-16T12:36:51.066Z,12.30
2018-10-16T12:37:51.049Z,11.60
2018-10-16T12:38:51.041Z,11.80
2018-10-16T12:39:51.111Z,12.00
2018-10-16T12:40:51.401Z,12.20
2018-10-16T12:41:51.042Z,12.80
2018-10-16T12:42:51.101Z,11.50
2018-10-16T12:43:51.134Z,11.80
2018-10-16T12:44:51.015Z,12.20
2018-10-16T12:45:51.044Z,11.90
2018-10-16T12:46:51.059Z,12.30
2018-10-16T12:47:51.010Z,11.30
2018-10-16T12:48:50.996Z,10.30
2018-10-16T12:49:50.991Z,10.70
2018-10-16T12:50:51.310Z,11.10
2018-10-16T12:51:50.986Z,9.50
2018-10-16T12:52:50.981Z,9.80